Time;durP1;ratioP1;P1;durP2;ratioP2;P2;SDS_P1;SDS_P2;PMS_P1;PMS_P2;Temp;Humidity;BMP_temperature;BMP_pressure;BME280_temperature;BME280_humidity;BME280_pressure;Samples;Min_cycle;Max_cycle;Signal;HPM_P1;HPM_P2
2023/09/09 00:02:19;;;;;;;;;;;22.10;90.80;;;;;;5009393;28;19917;-71
2023/09/09 00:04:45;;;;;;;;;;;22.00;90.80;;;;;;5009121;28;19910;-72
2023/09/09 00:07:11;;;;;;;;;;;22.00;91.00;;;;;;5004832;28;20356;-71
2023/09/09 00:09:38;;;;;;;;;;;22.00;91.00;;;;;;5009316;28;19918;-71
2023/09/09 00:12:04;;;;;;;;;;;21.90;91.00;;;;;;5009326;28;19920;-71
2023/09/09 00:14:29;;;;;;;;;;;21.90;91.10;;;;;;5009322;28;19909;-71
2023/09/09 00:16:55;;;;;;;;;;;21.90;91.10;;;;;;5009145;28;20357;-71
2023/09/09 00:19:21;;;;;;;;;;;21.90;91.00;;;;;;5009402;28;20007;-71
2023/09/09 00:21:47;;;;;;;;;;;21.80;91.00;;;;;;5008545;28;19918;-71
2023/09/09 00:24:12;;;;;;;;;;;21.80;91.00;;;;;;5008912;28;20382;-71
2023/09/09 00:26:38;;;;;;;;;;;21.80;91.10;;;;;;5008625;28;19914;-71
2023/09/09 00:29:04;;;;;;;;;;;21.80;91.30;;;;;;5008925;28;19995;-71
2023/09/09 00:31:29;;;;;;;;;;;21.70;91.20;;;;;;5008762;28;20442;-71
2023/09/09 00:33:54;;;;;;;;;;;21.70;91.40;;;;;;5007144;28;19909;-71
2023/09/09 00:36:20;;;;;;;;;;;21.70;91.30;;;;;;5008965;28;19924;-71
2023/09/09 00:38:46;;;;;;;;;;;21.60;91.30;;;;;;5007641;28;19918;-71
2023/09/09 00:41:15;;;;;;;;;;;21.70;91.50;;;;;;5008575;28;20357;-71
2023/09/09 00:43:41;;;;;;;;;;;21.70;91.30;;;;;;5006791;28;19913;-72
2023/09/09 00:46:07;;;;;;;;;;;21.60;91.40;;;;;;5008948;28;19921;-72
2023/09/09 00:48:32;;;;;;;;;;;21.60;91.50;;;;;;5008924;28;19917;-71
2023/09/09 00:50:58;;;;;;;;;;;21.60;91.50;;;;;;5007851;28;19967;-71
2023/09/09 00:53:24;;;;;;;;;;;21.50;91.50;;;;;;5008660;28;19997;-71
2023/09/09 00:55:50;;;;;;;;;;;21.50;91.50;;;;;;5008194;28;20341;-71
2023/09/09 00:58:15;;;;;;;;;;;21.50;91.60;;;;;;5008421;28;19960;-71
2023/09/09 01:00:41;;;;;;;;;;;21.50;91.80;;;;;;5006729;28;20036;-71
2023/09/09 01:03:09;;;;;;;;;;;21.40;91.70;;;;;;5008708;28;20000;-71
2023/09/09 01:05:35;;;;;;;;;;;21.40;91.80;;;;;;5008513;28;19920;-71
2023/09/09 01:08:01;;;;;;;;;;;21.40;91.90;;;;;;5007170;28;19917;-71
2023/09/09 01:10:27;;;;;;;;;;;21.40;91.60;;;;;;5008180;28;20508;-71
2023/09/09 01:12:52;;;;;;;;;;;21.40;91.80;;;;;;5007597;28;19913;-71
2023/09/09 01:15:18;;;;;;;;;;;21.30;91.60;;;;;;5006980;28;19987;-71
2023/09/09 01:17:43;;;;;;;;;;;21.30;92.00;;;;;;5007968;28;20366;-72
2023/09/09 01:20:15;;;;;;;;;;;21.30;91.80;;;;;;5008342;28;20259;-71
2023/09/09 01:22:43;;;;;;;;;;;21.30;92.00;;;;;;5003316;28;19917;-71
2023/09/09 01:25:10;;;;;;;;;;;21.20;92.00;;;;;;5008258;28;19914;-71
2023/09/09 01:27:35;;;;;;;;;;;21.20;92.00;;;;;;5008199;28;19931;-71
2023/09/09 01:30:01;;;;;;;;;;;21.20;92.10;;;;;;5006390;28;19921;-71
2023/09/09 01:32:26;;;;;;;;;;;21.20;92.00;;;;;;5007668;28;19921;-71
2023/09/09 01:34:52;;;;;;;;;;;21.20;92.10;;;;;;5006478;28;19914;-71
2023/09/09 01:37:18;;;;;;;;;;;21.10;92.10;;;;;;5005660;28;19910;-71
2023/09/09 01:39:43;;;;;;;;;;;21.10;92.20;;;;;;5007433;28;19920;-71
2023/09/09 01:42:09;;;;;;;;;;;21.10;92.20;;;;;;5005061;28;20262;-72
2023/09/09 01:44:34;;;;;;;;;;;21.10;92.10;;;;;;5003781;28;20012;-72
2023/09/09 01:47:00;;;;;;;;;;;21.10;92.20;;;;;;5007478;28;19913;-72
2023/09/09 01:49:25;;;;;;;;;;;21.00;92.30;;;;;;5007897;28;19976;-71
2023/09/09 01:51:51;;;;;;;;;;;21.00;92.30;;;;;;5006138;28;19914;-71
2023/09/09 01:54:16;;;;;;;;;;;21.00;92.40;;;;;;5008035;28;19920;-71
2023/09/09 01:56:42;;;;;;;;;;;21.00;92.50;;;;;;5007696;28;19955;-72
2023/09/09 01:59:07;;;;;;;;;;;20.90;92.50;;;;;;5007866;28;20004;-71
2023/09/09 02:01:33;;;;;;;;;;;20.90;92.60;;;;;;5007729;28;19913;-71
2023/09/09 02:03:58;;;;;;;;;;;20.90;92.50;;;;;;5007482;28;20761;-72
2023/09/09 02:06:27;;;;;;;;;;;20.90;92.50;;;;;;5006396;28;19909;-71
2023/09/09 02:08:53;;;;;;;;;;;20.90;92.50;;;;;;5005783;28;19937;-71
2023/09/09 02:11:19;;;;;;;;;;;20.90;92.50;;;;;;5007342;28;19972;-71
2023/09/09 02:13:44;;;;;;;;;;;20.90;92.70;;;;;;5007181;28;19941;-72
2023/09/09 02:16:10;;;;;;;;;;;20.80;93.00;;;;;;5006258;28;19910;-71
2023/09/09 02:18:39;;;;;;;;;;;20.80;92.70;;;;;;5007531;28;19921;-71
2023/09/09 02:21:05;;;;;;;;;;;20.80;92.70;;;;;;5005762;28;19988;-72
2023/09/09 02:23:31;;;;;;;;;;;20.80;92.80;;;;;;5007537;28;19952;-72
2023/09/09 02:25:57;;;;;;;;;;;20.70;92.80;;;;;;5005636;28;19964;-71
2023/09/09 02:28:22;;;;;;;;;;;20.70;92.90;;;;;;5007322;28;19917;-72
2023/09/09 02:30:48;;;;;;;;;;;20.70;92.90;;;;;;5006799;28;19917;-72
2023/09/09 02:33:13;;;;;;;;;;;20.70;92.90;;;;;;5007614;28;20346;-72
2023/09/09 02:35:45;;;;;;;;;;;20.70;93.00;;;;;;5007459;28;19913;-71
2023/09/09 02:38:10;;;;;;;;;;;20.60;93.00;;;;;;4999211;28;19910;-72
2023/09/09 02:40:36;;;;;;;;;;;20.60;92.90;;;;;;5007329;28;19925;-71
2023/09/09 02:43:02;;;;;;;;;;;20.60;93.00;;;;;;5007065;28;19941;-72
2023/09/09 02:45:27;;;;;;;;;;;20.60;93.00;;;;;;5007636;28;19957;-72
2023/09/09 02:47:53;;;;;;;;;;;20.60;93.00;;;;;;5008707;28;20020;-72
2023/09/09 02:50:19;;;;;;;;;;;20.60;93.10;;;;;;5008200;28;19924;-71
2023/09/09 02:52:44;;;;;;;;;;;20.50;93.10;;;;;;5010324;28;19914;-72
2023/09/09 02:55:10;;;;;;;;;;;20.50;93.00;;;;;;5011219;28;19955;-72
2023/09/09 02:57:35;;;;;;;;;;;20.50;93.00;;;;;;5010842;28;19909;-72
2023/09/09 03:00:01;;;;;;;;;;;20.50;93.00;;;;;;5010495;28;19960;-71
2023/09/09 03:02:26;;;;;;;;;;;20.50;93.10;;;;;;5010629;28;19913;-72
2023/09/09 03:04:52;;;;;;;;;;;20.40;93.10;;;;;;5010024;28;19914;-71
2023/09/09 03:07:17;;;;;;;;;;;20.40;93.20;;;;;;5005424;28;19906;-71
2023/09/09 03:09:45;;;;;;;;;;;20.40;93.20;;;;;;5010344;28;19923;-72
2023/09/09 03:12:10;;;;;;;;;;;20.40;93.20;;;;;;5010497;28;19924;-71
2023/09/09 03:14:36;;;;;;;;;;;20.40;93.20;;;;;;5009103;28;19913;-72
2023/09/09 03:17:01;;;;;;;;;;;20.40;93.30;;;;;;5010414;28;20606;-72
2023/09/09 03:19:27;;;;;;;;;;;20.30;93.30;;;;;;5010643;28;19964;-71
2023/09/09 03:21:52;;;;;;;;;;;20.30;93.30;;;;;;5009686;28;19914;-71
2023/09/09 03:24:18;;;;;;;;;;;20.30;93.20;;;;;;5010451;28;19909;-71
2023/09/09 03:26:43;;;;;;;;;;;20.30;93.30;;;;;;5010163;28;19921;-72
2023/09/09 03:29:09;;;;;;;;;;;20.30;93.40;;;;;;5010263;28;19909;-72
2023/09/09 03:31:35;;;;;;;;;;;20.20;93.30;;;;;;5010091;28;19909;-71
2023/09/09 03:34:00;;;;;;;;;;;20.20;93.30;;;;;;5010311;28;19924;-72
2023/09/09 03:36:26;;;;;;;;;;;20.20;93.40;;;;;;5010230;28;20641;-72
2023/09/09 03:38:51;;;;;;;;;;;20.20;93.40;;;;;;5008934;28;19920;-72
2023/09/09 03:41:17;;;;;;;;;;;20.20;93.30;;;;;;5010151;28;20252;-72
2023/09/09 03:43:42;;;;;;;;;;;20.10;93.40;;;;;;5005334;28;19910;-71
2023/09/09 03:46:08;;;;;;;;;;;20.10;93.50;;;;;;5010089;28;19914;-72
2023/09/09 03:48:33;;;;;;;;;;;20.10;93.30;;;;;;5009903;28;19929;-72
2023/09/09 03:50:59;;;;;;;;;;;20.10;93.30;;;;;;5009115;28;19918;-71
2023/09/09 03:53:25;;;;;;;;;;;20.00;93.40;;;;;;5008219;28;20383;-72
2023/09/09 03:55:50;;;;;;;;;;;20.10;93.60;;;;;;5009375;28;19921;-71
2023/09/09 03:58:16;;;;;;;;;;;20.00;93.50;;;;;;5009837;28;19917;-72
2023/09/09 04:00:42;;;;;;;;;;;20.00;93.60;;;;;;5008581;28;19913;-71
2023/09/09 04:03:07;;;;;;;;;;;20.00;93.50;;;;;;5009639;28;19967;-72
2023/09/09 04:05:33;;;;;;;;;;;20.00;93.50;;;;;;5009599;28;19913;-72
2023/09/09 04:08:03;;;;;;;;;;;20.00;93.60;;;;;;5008627;28;20275;-72
2023/09/09 04:10:28;;;;;;;;;;;19.90;93.50;;;;;;5009202;28;19918;-71
2023/09/09 04:12:54;;;;;;;;;;;19.90;93.60;;;;;;5008915;28;20742;-72
2023/09/09 04:15:19;;;;;;;;;;;19.90;93.60;;;;;;5008338;28;19910;-72
2023/09/09 04:17:45;;;;;;;;;;;19.90;93.60;;;;;;5008942;28;19917;-72
2023/09/09 04:20:10;;;;;;;;;;;19.90;93.60;;;;;;5008060;28;20751;-72
2023/09/09 04:22:36;;;;;;;;;;;19.90;93.60;;;;;;5009230;28;19913;-72
2023/09/09 04:25:01;;;;;;;;;;;19.80;93.60;;;;;;5009007;28;19925;-72
2023/09/09 04:27:27;;;;;;;;;;;19.80;93.70;;;;;;5007755;28;19913;-71
2023/09/09 04:29:52;;;;;;;;;;;19.80;93.70;;;;;;5008684;28;20263;-71
2023/09/09 04:32:18;;;;;;;;;;;19.80;93.70;;;;;;5008906;28;19928;-72
2023/09/09 04:34:44;;;;;;;;;;;19.80;93.70;;;;;;5008671;28;20008;-72
2023/09/09 04:37:09;;;;;;;;;;;19.80;93.70;;;;;;5008200;28;20030;-72
2023/09/09 04:39:35;;;;;;;;;;;19.70;93.70;;;;;;5008812;28;19971;-72
2023/09/09 04:42:00;;;;;;;;;;;19.70;93.70;;;;;;5006750;28;19921;-72
2023/09/09 04:44:27;;;;;;;;;;;19.70;93.70;;;;;;5008534;28;19917;-72
2023/09/09 04:46:52;;;;;;;;;;;19.70;93.60;;;;;;5000401;28;19913;-72
2023/09/09 04:49:18;;;;;;;;;;;19.70;93.60;;;;;;5008081;28;19921;-72
2023/09/09 04:51:43;;;;;;;;;;;19.70;93.70;;;;;;5008025;28;20557;-72
2023/09/09 04:54:09;;;;;;;;;;;19.70;93.70;;;;;;5008658;28;19921;-72
2023/09/09 04:56:35;;;;;;;;;;;19.60;93.70;;;;;;5008600;28;19921;-72
2023/09/09 04:59:00;;;;;;;;;;;19.60;93.70;;;;;;5006662;28;19913;-72
2023/09/09 05:01:26;;;;;;;;;;;19.60;94.00;;;;;;5008406;28;19984;-72
2023/09/09 05:03:52;;;;;;;;;;;19.60;93.80;;;;;;5008019;28;20563;-72
2023/09/09 05:06:17;;;;;;;;;;;19.60;93.80;;;;;;5005546;28;20711;-72
2023/09/09 05:08:43;;;;;;;;;;;19.60;93.80;;;;;;5004160;28;19909;-72
2023/09/09 05:11:09;;;;;;;;;;;19.60;93.80;;;;;;5007147;28;19924;-72
2023/09/09 05:13:34;;;;;;;;;;;19.60;93.80;;;;;;5006908;28;19996;-72
2023/09/09 05:16:00;;;;;;;;;;;19.60;93.80;;;;;;5007724;28;20043;-72
2023/09/09 05:18:25;;;;;;;;;;;19.50;93.70;;;;;;5008097;28;19921;-72
2023/09/09 05:20:51;;;;;;;;;;;19.50;93.70;;;;;;5007066;28;19918;-72
2023/09/09 05:23:16;;;;;;;;;;;19.50;93.70;;;;;;5007571;28;19914;-72
2023/09/09 05:25:42;;;;;;;;;;;19.50;93.80;;;;;;5007348;28;20352;-72
2023/09/09 05:28:07;;;;;;;;;;;19.50;93.80;;;;;;4997954;28;20048;-72
2023/09/09 05:30:33;;;;;;;;;;;19.50;93.90;;;;;;5007016;28;19924;-72
2023/09/09 05:32:58;;;;;;;;;;;19.50;93.90;;;;;;5007635;28;19920;-72
2023/09/09 05:35:24;;;;;;;;;;;19.40;93.80;;;;;;5006963;28;20057;-72
2023/09/09 05:37:49;;;;;;;;;;;19.40;93.80;;;;;;5007308;28;20004;-72
2023/09/09 05:40:15;;;;;;;;;;;19.40;93.80;;;;;;5008167;28;19916;-72
2023/09/09 05:42:40;;;;;;;;;;;19.40;93.80;;;;;;5007754;28;19921;-72
2023/09/09 05:45:08;;;;;;;;;;;19.40;93.90;;;;;;5007693;28;19921;-72
2023/09/09 05:47:34;;;;;;;;;;;19.40;93.80;;;;;;5003665;28;20023;-72
2023/09/09 05:50:00;;;;;;;;;;;19.40;93.80;;;;;;5007778;28;19956;-72
2023/09/09 05:52:25;;;;;;;;;;;19.40;93.90;;;;;;5006423;28;19949;-72
2023/09/09 05:54:51;;;;;;;;;;;19.40;93.90;;;;;;5006296;28;19913;-72
2023/09/09 05:57:16;;;;;;;;;;;19.40;93.90;;;;;;5006747;28;20393;-72
2023/09/09 05:59:42;;;;;;;;;;;19.40;93.90;;;;;;5006502;28;19918;-72
2023/09/09 06:02:07;;;;;;;;;;;19.40;93.90;;;;;;5005895;28;20043;-72
2023/09/09 06:04:33;;;;;;;;;;;19.40;93.90;;;;;;5007649;28;19913;-72
2023/09/09 06:06:58;;;;;;;;;;;19.40;93.90;;;;;;5007558;28;19921;-72
2023/09/09 06:09:24;;;;;;;;;;;19.40;93.90;;;;;;5001848;28;19992;-72
2023/09/09 06:11:50;;;;;;;;;;;19.40;93.90;;;;;;5007518;28;20485;-72
2023/09/09 06:14:16;;;;;;;;;;;19.40;93.90;;;;;;5006329;28;19967;-72
2023/09/09 06:16:41;;;;;;;;;;;19.40;93.90;;;;;;5007862;28;19918;-72
2023/09/09 06:19:07;;;;;;;;;;;19.40;93.90;;;;;;5007448;28;20527;-72
2023/09/09 06:21:33;;;;;;;;;;;19.40;93.80;;;;;;5007487;28;20036;-72
2023/09/09 06:23:58;;;;;;;;;;;19.40;93.90;;;;;;5010602;28;20381;-71
2023/09/09 06:26:24;;;;;;;;;;;19.40;93.80;;;;;;5010186;28;19914;-72
2023/09/09 06:28:50;;;;;;;;;;;19.40;93.70;;;;;;5011143;28;19918;-72
2023/09/09 06:31:16;;;;;;;;;;;19.40;93.70;;;;;;5011318;28;19974;-72
2023/09/09 06:33:41;;;;;;;;;;;19.40;93.70;;;;;;5011434;28;19914;-72
2023/09/09 06:36:07;;;;;;;;;;;19.40;93.70;;;;;;5011032;28;20301;-72
2023/09/09 06:38:32;;;;;;;;;;;19.40;93.60;;;;;;5011038;28;20068;-72
2023/09/09 06:40:57;;;;;;;;;;;19.40;93.60;;;;;;5010757;28;19913;-72
2023/09/09 06:43:23;;;;;;;;;;;19.40;93.60;;;;;;5009738;28;19913;-72
2023/09/09 06:45:49;;;;;;;;;;;19.40;93.60;;;;;;5011068;28;20007;-72
2023/09/09 06:48:16;;;;;;;;;;;19.40;93.60;;;;;;5011151;28;20012;-72
2023/09/09 06:50:48;;;;;;;;;;;19.40;93.50;;;;;;5010923;28;19921;-72
2023/09/09 06:53:14;;;;;;;;;;;19.40;93.50;;;;;;5003715;28;19914;-72
2023/09/09 06:55:41;;;;;;;;;;;19.40;93.50;;;;;;5011051;28;19913;-72
2023/09/09 06:58:07;;;;;;;;;;;19.40;93.40;;;;;;5010651;28;19913;-72
2023/09/09 07:00:32;;;;;;;;;;;19.40;93.50;;;;;;5010942;28;19975;-72
2023/09/09 07:02:58;;;;;;;;;;;19.40;93.40;;;;;;5010501;28;19909;-72
2023/09/09 07:05:24;;;;;;;;;;;19.40;93.40;;;;;;5010766;28;20273;-72
2023/09/09 07:07:50;;;;;;;;;;;19.50;93.30;;;;;;5004595;28;19909;-72
2023/09/09 07:10:15;;;;;;;;;;;19.50;93.40;;;;;;5010654;28;19920;-72
2023/09/09 07:12:42;;;;;;;;;;;19.50;93.40;;;;;;5010693;28;19950;-74
2023/09/09 07:15:08;;;;;;;;;;;19.50;93.40;;;;;;5009354;28;20000;-74
2023/09/09 07:17:33;;;;;;;;;;;19.50;93.30;;;;;;5010775;28;19913;-74
2023/09/09 07:19:59;;;;;;;;;;;19.50;93.30;;;;;;5010405;28;19921;-74
2023/09/09 07:22:25;;;;;;;;;;;19.50;93.20;;;;;;5010427;28;19909;-74
2023/09/09 07:24:50;;;;;;;;;;;19.60;93.20;;;;;;5010370;28;19909;-74
2023/09/09 07:27:16;;;;;;;;;;;19.60;93.20;;;;;;5010656;28;20361;-74
2023/09/09 07:29:41;;;;;;;;;;;19.60;93.10;;;;;;5009077;28;19917;-74
2023/09/09 07:32:07;;;;;;;;;;;19.60;93.10;;;;;;5009903;28;20260;-74
2023/09/09 07:34:33;;;;;;;;;;;19.60;93.10;;;;;;5008060;28;19920;-74
2023/09/09 07:36:58;;;;;;;;;;;19.60;93.00;;;;;;5007913;28;19914;-74
2023/09/09 07:39:26;;;;;;;;;;;19.60;93.00;;;;;;5008251;28;20496;-74
2023/09/09 07:41:51;;;;;;;;;;;19.70;93.00;;;;;;5008832;28;19936;-74
2023/09/09 07:44:17;;;;;;;;;;;19.70;92.90;;;;;;5010374;28;20446;-74
2023/09/09 07:46:43;;;;;;;;;;;19.80;92.90;;;;;;5010338;28;19919;-74
2023/09/09 07:49:08;;;;;;;;;;;19.80;93.00;;;;;;5009798;28;19921;-74
2023/09/09 07:51:34;;;;;;;;;;;19.80;92.80;;;;;;5005584;28;19968;-74
2023/09/09 07:53:59;;;;;;;;;;;19.80;93.10;;;;;;5009743;28;20251;-74
2023/09/09 07:56:25;;;;;;;;;;;19.90;92.80;;;;;;5008885;28;19909;-74
2023/09/09 07:58:50;;;;;;;;;;;19.90;93.00;;;;;;5008252;28;19909;-74
2023/09/09 08:01:16;;;;;;;;;;;20.00;92.70;;;;;;5009612;28;19913;-74
2023/09/09 08:03:41;;;;;;;;;;;20.00;92.60;;;;;;5009870;28;20317;-74
2023/09/09 08:06:07;;;;;;;;;;;20.00;92.60;;;;;;5009450;28;20004;-74
2023/09/09 08:08:32;;;;;;;;;;;20.10;92.50;;;;;;5009723;28;19917;-74
2023/09/09 08:10:58;;;;;;;;;;;20.10;92.50;;;;;;5009226;28;19913;-74
2023/09/09 08:13:26;;;;;;;;;;;20.10;92.50;;;;;;5009714;28;19935;-74
2023/09/09 08:15:52;;;;;;;;;;;20.20;92.50;;;;;;5009421;28;19913;-73
2023/09/09 08:18:17;;;;;;;;;;;20.20;92.40;;;;;;5010032;28;20008;-74
2023/09/09 08:20:44;;;;;;;;;;;20.30;92.50;;;;;;5009478;28;19918;-73
2023/09/09 08:23:09;;;;;;;;;;;20.30;92.30;;;;;;5009392;28;19919;-74
2023/09/09 08:25:35;;;;;;;;;;;20.40;92.40;;;;;;5009628;28;19917;-73
2023/09/09 08:28:03;;;;;;;;;;;20.40;92.30;;;;;;5007783;28;19919;-73
2023/09/09 08:30:29;;;;;;;;;;;20.40;92.30;;;;;;5009559;28;19924;-73
2023/09/09 08:32:55;;;;;;;;;;;20.50;92.20;;;;;;5009010;28;19914;-73
2023/09/09 08:35:22;;;;;;;;;;;20.50;92.10;;;;;;5009581;28;19968;-74
2023/09/09 08:37:47;;;;;;;;;;;20.60;92.10;;;;;;5008740;28;19914;-73
2023/09/09 08:40:13;;;;;;;;;;;20.60;92.10;;;;;;5008212;28;19920;-73
2023/09/09 08:43:02;;;;;;;;;;;20.70;92.20;;;;;;5009271;28;19914;-73
2023/09/09 08:45:47;;;;;;;;;;;20.70;92.10;;;;;;5003566;28;19917;-73
2023/09/09 08:48:17;;;;;;;;;;;20.80;92.20;;;;;;5008229;28;19921;-73
2023/09/09 08:50:44;;;;;;;;;;;20.90;92.00;;;;;;5005635;28;19927;-73
2023/09/09 08:53:12;;;;;;;;;;;20.90;92.00;;;;;;5007674;28;19920;-73
2023/09/09 08:55:39;;;;;;;;;;;21.00;91.80;;;;;;5009600;28;19914;-73
2023/09/09 08:58:05;;;;;;;;;;;21.00;91.90;;;;;;5008900;28;19915;-73
2023/09/09 09:00:35;;;;;;;;;;;21.10;91.90;;;;;;5009037;28;19965;-73
2023/09/09 09:03:01;;;;;;;;;;;21.10;91.70;;;;;;5008886;28;19910;-73
2023/09/09 09:05:29;;;;;;;;;;;21.20;91.70;;;;;;5008518;28;19969;-73
2023/09/09 09:07:55;;;;;;;;;;;21.20;91.70;;;;;;5000338;28;19968;-73
2023/09/09 09:10:21;;;;;;;;;;;21.20;91.70;;;;;;5008970;28;20018;-73
2023/09/09 09:12:47;;;;;;;;;;;21.30;91.70;;;;;;5008381;28;19971;-73
2023/09/09 09:15:13;;;;;;;;;;;21.30;91.60;;;;;;5009031;28;20372;-73
2023/09/09 09:17:40;;;;;;;;;;;21.30;91.60;;;;;;5009104;28;19916;-73
2023/09/09 09:20:07;;;;;;;;;;;21.40;91.60;;;;;;5007520;28;19918;-73
2023/09/09 09:22:34;;;;;;;;;;;21.40;91.50;;;;;;5008601;28;20290;-73
2023/09/09 09:24:59;;;;;;;;;;;21.50;91.70;;;;;;5009164;28;20119;-73
2023/09/09 09:27:30;;;;;;;;;;;21.50;91.80;;;;;;5009245;28;19996;-73
2023/09/09 09:29:55;;;;;;;;;;;21.60;91.60;;;;;;5008759;28;19914;-73
2023/09/09 09:32:21;;;;;;;;;;;21.60;91.70;;;;;;5008959;28;19920;-73
2023/09/09 09:34:49;;;;;;;;;;;21.70;91.60;;;;;;5007698;28;19914;-73
2023/09/09 09:37:15;;;;;;;;;;;21.70;91.70;;;;;;5008313;28;19913;-73
2023/09/09 09:39:41;;;;;;;;;;;21.70;91.50;;;;;;5009072;28;19914;-73
2023/09/09 09:42:09;;;;;;;;;;;21.80;91.50;;;;;;5008399;28;19917;-73
2023/09/09 09:44:35;;;;;;;;;;;21.80;91.40;;;;;;5008381;28;19968;-73
2023/09/09 09:47:01;;;;;;;;;;;21.90;91.50;;;;;;5008244;28;19917;-73
2023/09/09 09:49:34;;;;;;;;;;;21.90;91.60;;;;;;5009046;28;19936;-73
2023/09/09 09:52:00;;;;;;;;;;;22.00;91.30;;;;;;5008485;28;19964;-73
2023/09/09 09:54:25;;;;;;;;;;;22.00;91.40;;;;;;5008989;28;19914;-73
2023/09/09 09:56:52;;;;;;;;;;;22.10;91.40;;;;;;5009674;28;19913;-73
2023/09/09 09:59:18;;;;;;;;;;;22.10;91.40;;;;;;5015484;28;20008;-72
2023/09/09 10:01:44;;;;;;;;;;;22.20;91.50;;;;;;5007783;28;19913;-73
2023/09/09 10:04:11;;;;;;;;;;;22.30;91.40;;;;;;5014764;28;19914;-72
2023/09/09 10:06:37;;;;;;;;;;;22.30;91.30;;;;;;5015445;28;20513;-72
2023/09/09 10:09:06;;;;;;;;;;;22.30;91.30;;;;;;5013649;28;20007;-73
2023/09/09 10:11:33;;;;;;;;;;;22.40;91.30;;;;;;5015332;28;19952;-72
2023/09/09 10:14:04;;;;;;;;;;;22.40;91.10;;;;;;5014962;28;19917;-72
2023/09/09 10:16:30;;;;;;;;;;;22.50;91.20;;;;;;5015476;28;20372;-72
2023/09/09 10:18:57;;;;;;;;;;;22.50;91.30;;;;;;5015021;28;19913;-72
2023/09/09 10:21:23;;;;;;;;;;;22.60;91.10;;;;;;5015192;28;20447;-73
2023/09/09 10:23:49;;;;;;;;;;;22.70;91.00;;;;;;5015152;28;20032;-72
2023/09/09 10:26:17;;;;;;;;;;;22.70;91.20;;;;;;5015221;28;19914;-72
2023/09/09 10:28:43;;;;;;;;;;;22.80;91.20;;;;;;5015077;28;19953;-72
2023/09/09 10:31:12;;;;;;;;;;;22.80;91.10;;;;;;5014349;28;19921;-72
2023/09/09 10:33:42;;;;;;;;;;;22.90;91.40;;;;;;5015275;28;19909;-72
2023/09/09 10:36:08;;;;;;;;;;;23.00;91.20;;;;;;5014834;28;19917;-72
2023/09/09 10:38:34;;;;;;;;;;;23.00;91.10;;;;;;5014491;28;19910;-72
2023/09/09 10:41:00;;;;;;;;;;;23.20;91.30;;;;;;5014859;28;19960;-72
2023/09/09 10:43:26;;;;;;;;;;;23.20;91.20;;;;;;5015142;28;19914;-72
2023/09/09 10:45:52;;;;;;;;;;;23.30;91.40;;;;;;5014889;28;20720;-72
2023/09/09 10:48:21;;;;;;;;;;;23.40;91.50;;;;;;5015120;28;19925;-72
2023/09/09 10:50:46;;;;;;;;;;;23.50;91.50;;;;;;5014485;28;19921;-72
2023/09/09 10:53:13;;;;;;;;;;;23.60;91.60;;;;;;5014610;28;19925;-72
2023/09/09 10:55:38;;;;;;;;;;;23.60;91.60;;;;;;5014136;28;19914;-72
2023/09/09 10:58:08;;;;;;;;;;;23.70;91.60;;;;;;5014258;28;19913;-72
2023/09/09 11:00:41;;;;;;;;;;;23.80;91.80;;;;;;5014090;28;19957;-72
2023/09/09 11:03:16;;;;;;;;;;;23.90;91.60;;;;;;5014314;28;19917;-72
2023/09/09 11:06:02;;;;;;;;;;;24.00;91.70;;;;;;5014708;28;19914;-72
2023/09/09 11:08:29;;;;;;;;;;;24.10;91.80;;;;;;5008100;28;19913;-72
2023/09/09 11:11:08;;;;;;;;;;;24.30;91.80;;;;;;5011214;28;19917;-72
2023/09/09 11:13:37;;;;;;;;;;;24.40;91.80;;;;;;5011930;28;19944;-72
2023/09/09 11:16:05;;;;;;;;;;;24.50;91.70;;;;;;5010014;28;19920;-72
2023/09/09 11:18:30;;;;;;;;;;;24.60;91.80;;;;;;5011429;28;19920;-72
2023/09/09 11:20:58;;;;;;;;;;;24.70;91.80;;;;;;5011189;28;20428;-72
2023/09/09 11:23:25;;;;;;;;;;;24.80;91.80;;;;;;5011566;28;19960;-72
2023/09/09 11:25:51;;;;;;;;;;;24.90;91.70;;;;;;5011115;28;19935;-72
2023/09/09 11:28:17;;;;;;;;;;;25.00;91.70;;;;;;5011710;28;19910;-72
2023/09/09 11:30:43;;;;;;;;;;;25.10;91.60;;;;;;5011460;28;19923;-72
2023/09/09 11:33:08;;;;;;;;;;;25.10;91.70;;;;;;5004634;28;20015;-72
2023/09/09 11:35:34;;;;;;;;;;;25.30;91.80;;;;;;5011407;28;20340;-72
2023/09/09 11:38:03;;;;;;;;;;;25.30;91.80;;;;;;5004073;28;19988;-72
2023/09/09 11:40:29;;;;;;;;;;;25.40;92.00;;;;;;5011377;28;20433;-72
2023/09/09 11:42:54;;;;;;;;;;;25.50;91.90;;;;;;5003284;28;19939;-72
2023/09/09 11:45:20;;;;;;;;;;;25.60;91.70;;;;;;5008264;28;19918;-71
2023/09/09 11:47:47;;;;;;;;;;;25.70;91.80;;;;;;5008582;28;19917;-71
2023/09/09 11:50:12;;;;;;;;;;;25.80;92.30;;;;;;5009446;28;19929;-71
2023/09/09 11:52:38;;;;;;;;;;;25.90;92.30;;;;;;5006127;28;19918;-71
2023/09/09 11:55:04;;;;;;;;;;;26.00;92.10;;;;;;5005929;28;19914;-71
2023/09/09 11:57:29;;;;;;;;;;;26.00;92.10;;;;;;5009333;28;19937;-71
2023/09/09 11:59:57;;;;;;;;;;;26.10;92.00;;;;;;5004840;28;20036;-71
2023/09/09 12:02:26;;;;;;;;;;;26.20;92.00;;;;;;5009999;28;19914;-71
2023/09/09 12:04:55;;;;;;;;;;;26.30;92.10;;;;;;5008890;28;19956;-71
2023/09/09 12:07:22;;;;;;;;;;;26.30;92.30;;;;;;5002247;28;19976;-71
2023/09/09 12:09:47;;;;;;;;;;;26.40;92.20;;;;;;5009774;28;19928;-72
2023/09/09 12:12:14;;;;;;;;;;;26.50;92.10;;;;;;5008917;28;20537;-72
2023/09/09 12:14:40;;;;;;;;;;;26.50;92.20;;;;;;5007883;28;19944;-71
2023/09/09 12:17:05;;;;;;;;;;;26.60;92.20;;;;;;5006977;28;20375;-71
2023/09/09 12:19:34;;;;;;;;;;;26.70;92.30;;;;;;5007245;28;19918;-71
2023/09/09 12:21:59;;;;;;;;;;;26.70;92.10;;;;;;5006835;28;19914;-71
2023/09/09 12:24:24;;;;;;;;;;;26.70;92.00;;;;;;5009498;28;19910;-71
2023/09/09 12:26:51;;;;;;;;;;;26.80;92.20;;;;;;5003460;28;19960;-71
2023/09/09 12:29:17;;;;;;;;;;;26.80;92.10;;;;;;5008864;28;19913;-71
2023/09/09 12:31:53;;;;;;;;;;;26.90;92.30;;;;;;5006700;28;19975;-71
2023/09/09 12:34:19;;;;;;;;;;;27.00;92.40;;;;;;5001621;28;19914;-71
2023/09/09 12:36:47;;;;;;;;;;;27.00;92.30;;;;;;5001234;28;19917;-71
2023/09/09 12:39:39;;;;;;;;;;;27.10;91.60;;;;;;5005939;28;19921;-71
2023/09/09 12:42:08;;;;;;;;;;;27.10;91.80;;;;;;5004207;28;20346;-72
2023/09/09 12:44:47;;;;;;;;;;;27.20;92.20;;;;;;5003610;28;19925;-72
2023/09/09 12:47:12;;;;;;;;;;;27.20;91.90;;;;;;5002729;28;19921;-71
2023/09/09 12:49:38;;;;;;;;;;;27.30;91.80;;;;;;5007172;28;19921;-72
2023/09/09 12:52:04;;;;;;;;;;;27.30;92.10;;;;;;5008949;28;19952;-72
2023/09/09 12:54:29;;;;;;;;;;;27.30;92.10;;;;;;5004555;28;19910;-72
2023/09/09 12:56:54;;;;;;;;;;;27.40;91.80;;;;;;5003159;28;19910;-72
2023/09/09 12:59:20;;;;;;;;;;;27.40;92.00;;;;;;5004260;28;19937;-72
2023/09/09 13:01:48;;;;;;;;;;;27.50;91.80;;;;;;5004522;28;19918;-72
2023/09/09 13:04:13;;;;;;;;;;;27.50;91.80;;;;;;5008647;28;19955;-72
2023/09/09 13:06:39;;;;;;;;;;;27.50;92.00;;;;;;5006689;28;20362;-71
2023/09/09 13:09:04;;;;;;;;;;;27.60;91.90;;;;;;5006716;28;19919;-71
2023/09/09 13:11:30;;;;;;;;;;;27.60;92.00;;;;;;5007533;28;19917;-71
2023/09/09 13:13:55;;;;;;;;;;;27.70;91.90;;;;;;5007961;28;20000;-71
2023/09/09 13:16:21;;;;;;;;;;;27.70;92.00;;;;;;5006743;28;19932;-71
2023/09/09 13:18:46;;;;;;;;;;;27.70;92.10;;;;;;5008486;28;19922;-71
2023/09/09 13:21:12;;;;;;;;;;;27.70;92.00;;;;;;5007406;28;20469;-71
2023/09/09 13:23:37;;;;;;;;;;;27.80;91.80;;;;;;5008313;28;19917;-71
2023/09/09 13:26:03;;;;;;;;;;;27.80;91.80;;;;;;5007934;28;19913;-71
2023/09/09 13:28:31;;;;;;;;;;;27.90;92.10;;;;;;5008146;28;20370;-71
2023/09/09 13:30:56;;;;;;;;;;;27.90;92.00;;;;;;5007497;28;19922;-71
2023/09/09 13:33:22;;;;;;;;;;;28.00;92.00;;;;;;5007510;28;19980;-71
2023/09/09 13:35:47;;;;;;;;;;;28.00;91.90;;;;;;5008148;28;20274;-71
2023/09/09 13:38:13;;;;;;;;;;;28.00;91.90;;;;;;5006640;28;19910;-71
2023/09/09 13:40:38;;;;;;;;;;;28.00;92.00;;;;;;5007833;28;19920;-71
2023/09/09 13:43:04;;;;;;;;;;;28.10;92.00;;;;;;5007575;28;20410;-71
2023/09/09 13:45:29;;;;;;;;;;;28.10;91.90;;;;;;5008177;28;19940;-71
2023/09/09 13:47:55;;;;;;;;;;;28.10;91.80;;;;;;5007491;28;19956;-71
2023/09/09 13:50:20;;;;;;;;;;;28.20;91.80;;;;;;5006467;28;20008;-71
2023/09/09 13:52:46;;;;;;;;;;;28.30;91.80;;;;;;5004466;28;19963;-71
2023/09/09 13:55:11;;;;;;;;;;;28.30;91.50;;;;;;5007583;28;19917;-71
2023/09/09 13:57:37;;;;;;;;;;;28.30;91.90;;;;;;5007899;28;20588;-71
2023/09/09 14:00:04;;;;;;;;;;;28.30;91.90;;;;;;5007575;28;20386;-71
2023/09/09 14:02:29;;;;;;;;;;;28.40;91.80;;;;;;5006529;28;20264;-71
2023/09/09 14:04:55;;;;;;;;;;;28.40;92.10;;;;;;5007756;28;19917;-71
2023/09/09 14:07:21;;;;;;;;;;;28.40;91.80;;;;;;5006470;28;19950;-71
2023/09/09 14:09:47;;;;;;;;;;;28.50;91.70;;;;;;5007707;28;19913;-71
2023/09/09 14:12:13;;;;;;;;;;;28.50;91.50;;;;;;5007123;28;19924;-71